createdAt,value
2022-09-28T00:00:44.948Z,2.50
2022-09-28T00:01:45.035Z,3.30
2022-09-28T00:02:45.034Z,2.40
2022-09-28T00:03:44.930Z,2.20
2022-09-28T00:04:44.915Z,3.10
2022-09-28T00:05:44.906Z,2.50
2022-09-28T00:06:44.899Z,2.40
2022-09-28T00:07:44.892Z,3.10
2022-09-28T00:08:44.881Z,2.30
2022-09-28T00:09:44.873Z,2.70
2022-09-28T00:10:44.865Z,2.80
2022-09-28T00:11:44.857Z,3.30
2022-09-28T00:12:44.849Z,3.10
2022-09-28T00:13:44.840Z,2.40
2022-09-28T00:14:44.832Z,3.10
2022-09-28T00:15:44.824Z,3.40
2022-09-28T00:16:44.829Z,3.70
2022-09-28T00:17:44.807Z,3.00
2022-09-28T00:18:44.799Z,3.00
2022-09-28T00:19:44.791Z,2.70
2022-09-28T00:20:44.782Z,2.90
2022-09-28T00:21:44.774Z,2.90
2022-09-28T00:22:44.767Z,2.30
2022-09-28T00:23:44.758Z,3.10
2022-09-28T00:24:44.750Z,3.50
2022-09-28T00:25:44.742Z,2.90
2022-09-28T00:26:44.733Z,3.00
2022-09-28T00:27:44.725Z,2.70
2022-09-28T00:28:44.718Z,2.30
2022-09-28T00:29:44.707Z,3.20
2022-09-28T00:30:44.703Z,3.10
2022-09-28T00:31:44.830Z,4.00
2022-09-28T00:32:44.684Z,3.70
2022-09-28T00:33:44.675Z,2.40
2022-09-28T00:34:44.666Z,2.50
2022-09-28T00:35:44.662Z,2.90
2022-09-28T00:36:44.653Z,2.60
2022-09-28T00:37:44.643Z,3.90
2022-09-28T00:38:44.635Z,3.10
2022-09-28T00:39:44.628Z,2.80
2022-09-28T00:40:44.675Z,4.40
2022-09-28T00:41:44.610Z,4.10
2022-09-28T00:42:44.602Z,4.90
2022-09-28T00:43:44.592Z,2.60
2022-09-28T00:44:44.587Z,2.90
2022-09-28T00:45:44.685Z,3.30
2022-09-28T00:46:44.571Z,4.10
2022-09-28T00:47:44.561Z,3.30
2022-09-28T00:48:44.554Z,4.20
2022-09-28T00:49:44.545Z,4.40
2022-09-28T00:50:44.536Z,4.50
2022-09-28T00:51:44.530Z,4.50
2022-09-28T00:52:44.519Z,3.40
2022-09-28T00:53:44.511Z,4.10
2022-09-28T00:54:44.503Z,3.30
2022-09-28T00:55:44.495Z,3.30
2022-09-28T00:56:44.487Z,4.70
2022-09-28T00:57:44.477Z,3.50
2022-09-28T00:58:44.471Z,3.40
2022-09-28T00:59:44.464Z,3.50
2022-09-28T01:00:44.493Z,3.40
2022-09-28T01:01:44.514Z,4.10
2022-09-28T01:02:44.439Z,4.30
2022-09-28T01:03:44.430Z,4.70
2022-09-28T01:04:44.422Z,5.10
2022-09-28T01:05:44.413Z,3.70
2022-09-28T01:06:44.405Z,4.70
2022-09-28T01:07:44.395Z,4.90
2022-09-28T01:08:44.390Z,4.60
2022-09-28T01:09:44.380Z,4.50
2022-09-28T01:10:44.372Z,5.40
2022-09-28T01:11:44.364Z,4.40
2022-09-28T01:12:44.355Z,4.60
2022-09-28T01:13:44.348Z,4.30
2022-09-28T01:14:44.339Z,4.80
2022-09-28T01:15:44.331Z,6.00
2022-09-28T01:16:44.378Z,5.10
2022-09-28T01:17:44.316Z,4.20
2022-09-28T01:18:44.307Z,5.20
2022-09-28T01:19:44.303Z,5.40
2022-09-28T01:20:44.291Z,4.00
2022-09-28T01:21:44.285Z,4.90
2022-09-28T01:22:44.274Z,4.70
2022-09-28T01:23:44.267Z,4.80
2022-09-28T01:24:44.260Z,4.20
2022-09-28T01:25:44.250Z,5.60
2022-09-28T01:26:44.242Z,4.30
2022-09-28T01:27:44.232Z,4.40
2022-09-28T01:28:44.228Z,5.00
2022-09-28T01:29:44.218Z,4.80
2022-09-28T01:30:44.211Z,5.10
2022-09-28T01:31:44.337Z,5.90
2022-09-28T01:32:44.195Z,4.70
2022-09-28T01:33:44.186Z,4.80
2022-09-28T01:34:44.176Z,4.40
2022-09-28T01:35:44.170Z,4.70
2022-09-28T01:36:44.162Z,5.20
2022-09-28T01:37:44.154Z,5.30
2022-09-28T01:38:44.145Z,5.10
2022-09-28T01:39:44.137Z,5.70
2022-09-28T01:40:44.148Z,6.00
2022-09-28T01:41:44.119Z,4.70
2022-09-28T01:42:44.113Z,4.50
2022-09-28T01:43:44.103Z,4.50
2022-09-28T01:44:44.096Z,4.60
2022-09-28T01:45:44.135Z,4.50
2022-09-28T01:46:44.079Z,4.90
2022-09-28T01:47:44.073Z,4.60
2022-09-28T01:48:44.063Z,4.10
2022-09-28T01:49:44.057Z,4.60
2022-09-28T01:50:44.047Z,4.90
2022-09-28T01:51:44.039Z,4.70
2022-09-28T01:52:44.032Z,4.40
2022-09-28T01:53:44.021Z,4.60
2022-09-28T01:54:44.014Z,5.00
2022-09-28T01:55:44.006Z,4.00
2022-09-28T01:56:43.997Z,4.40
2022-09-28T01:57:43.992Z,4.50
2022-09-28T01:58:43.981Z,4.30
2022-09-28T01:59:43.974Z,4.80
2022-09-28T02:00:43.994Z,4.10
2022-09-28T02:01:43.977Z,4.90
2022-09-28T02:02:43.948Z,4.40
2022-09-28T02:03:43.940Z,4.10
2022-09-28T02:04:43.934Z,4.90
2022-09-28T02:05:43.926Z,5.60
2022-09-28T02:06:43.919Z,4.60
2022-09-28T02:07:43.909Z,5.50
2022-09-28T02:08:43.901Z,4.60
2022-09-28T02:09:43.893Z,4.70
2022-09-28T02:10:43.886Z,4.00
2022-09-28T02:11:43.876Z,3.90
2022-09-28T02:12:43.868Z,4.50
2022-09-28T02:13:43.859Z,3.70
2022-09-28T02:14:43.855Z,3.50
2022-09-28T02:15:43.844Z,4.90
2022-09-28T02:16:43.927Z,3.50
2022-09-28T02:17:43.828Z,3.60
2022-09-28T02:18:43.818Z,3.30
2022-09-28T02:19:43.812Z,3.50
2022-09-28T02:20:43.803Z,3.50
2022-09-28T02:21:43.794Z,4.10
2022-09-28T02:22:43.788Z,3.50
2022-09-28T02:23:43.781Z,3.70
2022-09-28T02:24:43.771Z,3.20
2022-09-28T02:25:43.763Z,3.70
2022-09-28T02:26:43.754Z,4.10
2022-09-28T02:27:43.749Z,3.50
2022-09-28T02:28:43.737Z,4.30
2022-09-28T02:29:43.730Z,3.50
2022-09-28T02:30:43.720Z,4.70
2022-09-28T02:31:43.812Z,3.70
2022-09-28T02:32:43.705Z,3.50
2022-09-28T02:33:43.697Z,3.50
2022-09-28T02:34:43.690Z,3.90
2022-09-28T02:35:43.701Z,4.10
2022-09-28T02:36:43.673Z,5.50
2022-09-28T02:37:43.664Z,3.30
2022-09-28T02:38:43.663Z,3.60
2022-09-28T02:39:43.647Z,3.70
2022-09-28T02:40:43.658Z,3.40
2022-09-28T02:41:43.634Z,3.40
2022-09-28T02:42:43.624Z,5.10
2022-09-28T02:43:43.616Z,4.50
2022-09-28T02:44:43.609Z,3.60
2022-09-28T02:45:43.650Z,3.90
2022-09-28T02:46:43.591Z,3.70
2022-09-28T02:47:43.583Z,3.40
2022-09-28T02:48:45.667Z,3.90
2022-09-28T02:49:43.565Z,4.60
2022-09-28T02:50:43.558Z,4.20
2022-09-28T02:51:43.550Z,3.90
2022-09-28T02:52:43.553Z,4.10
2022-09-28T02:53:43.535Z,4.10
2022-09-28T02:54:43.525Z,4.30
2022-09-28T02:55:43.517Z,4.30
2022-09-28T02:56:43.509Z,4.90
2022-09-28T02:57:43.503Z,4.00
2022-09-28T02:58:43.495Z,4.40
2022-09-28T02:59:43.487Z,5.40
2022-09-28T03:00:43.632Z,4.00
2022-09-28T03:01:43.490Z,5.40
2022-09-28T03:02:43.461Z,4.50
2022-09-28T03:03:43.454Z,4.60
2022-09-28T03:04:43.445Z,4.90
2022-09-28T03:05:43.434Z,4.70
2022-09-28T03:06:43.427Z,5.10
2022-09-28T03:07:43.419Z,5.40
2022-09-28T03:08:43.411Z,6.10
2022-09-28T03:09:43.401Z,5.30
2022-09-28T03:10:43.396Z,7.10
2022-09-28T03:11:43.385Z,5.40
2022-09-28T03:12:43.379Z,5.40
2022-09-28T03:13:43.369Z,5.40
2022-09-28T03:14:43.362Z,5.90
2022-09-28T03:15:47.715Z,6.60
2022-09-28T03:16:43.362Z,6.60
2022-09-28T03:17:43.336Z,7.40
2022-09-28T03:18:43.333Z,6.70
2022-09-28T03:19:43.320Z,6.70
2022-09-28T03:20:43.312Z,7.30
2022-09-28T03:21:43.304Z,7.80
2022-09-28T03:22:43.296Z,8.50
2022-09-28T03:23:43.288Z,6.50
2022-09-28T03:24:43.281Z,7.30
2022-09-28T03:25:43.273Z,7.90
2022-09-28T03:26:43.262Z,7.10
2022-09-28T03:27:43.257Z,7.30
2022-09-28T03:28:43.256Z,7.00
2022-09-28T03:29:43.237Z,6.80
2022-09-28T03:30:43.231Z,8.30
2022-09-28T03:31:43.264Z,8.00
2022-09-28T03:32:43.214Z,8.50
2022-09-28T03:33:43.205Z,9.70
2022-09-28T03:34:43.197Z,11.20
2022-09-28T03:35:43.190Z,9.50
2022-09-28T03:36:43.181Z,9.60
2022-09-28T03:37:43.172Z,10.60
2022-09-28T03:38:43.163Z,10.50
2022-09-28T03:39:43.158Z,10.30
2022-09-28T03:40:43.188Z,9.40
2022-09-28T03:41:43.138Z,11.50
2022-09-28T03:42:43.130Z,11.10
2022-09-28T03:43:43.124Z,11.80
2022-09-28T03:44:43.116Z,10.80
2022-09-28T03:45:43.162Z,10.40
2022-09-28T03:46:43.099Z,9.60
2022-09-28T03:47:43.091Z,10.00
2022-09-28T03:48:43.083Z,9.30
2022-09-28T03:49:43.073Z,9.40
2022-09-28T03:50:43.065Z,8.50
2022-09-28T03:51:43.058Z,8.70
2022-09-28T03:52:43.049Z,8.80
2022-09-28T03:53:43.041Z,9.10
2022-09-28T03:54:48.317Z,11.60
2022-09-28T03:55:43.025Z,9.00
2022-09-28T03:56:43.016Z,10.70
2022-09-28T03:57:43.006Z,10.00
2022-09-28T03:58:43.004Z,11.90
2022-09-28T03:59:42.991Z,10.20
2022-09-28T04:00:43.029Z,10.60
2022-09-28T04:01:43.027Z,10.70
2022-09-28T04:02:42.965Z,11.30
2022-09-28T04:03:42.957Z,11.90
2022-09-28T04:04:42.948Z,10.60
2022-09-28T04:05:42.942Z,10.50
2022-09-28T04:06:42.932Z,10.80
2022-09-28T04:07:42.923Z,11.70
2022-09-28T04:08:42.917Z,10.70
2022-09-28T04:09:42.905Z,9.20
2022-09-28T04:10:42.897Z,11.20
2022-09-28T04:12:02.408Z,14.40
2022-09-28T04:12:42.882Z,11.00
2022-09-28T04:13:42.872Z,11.10
2022-09-28T04:14:42.865Z,11.40
2022-09-28T04:15:42.857Z,12.40
2022-09-28T04:16:42.892Z,11.10
2022-09-28T04:17:42.843Z,9.90
2022-09-28T04:18:42.835Z,11.60
2022-09-28T04:19:42.823Z,10.00
2022-09-28T04:20:42.816Z,11.40
2022-09-28T04:21:42.806Z,10.00
2022-09-28T04:22:42.799Z,10.30
2022-09-28T04:23:42.794Z,11.00
2022-09-28T04:24:42.781Z,10.00
2022-09-28T04:25:42.775Z,10.60
2022-09-28T04:26:42.767Z,9.90
2022-09-28T04:27:42.757Z,11.40
2022-09-28T04:28:42.748Z,12.80
2022-09-28T04:29:42.739Z,11.10
2022-09-28T04:30:42.771Z,10.50
2022-09-28T04:31:42.783Z,12.80
2022-09-28T04:32:42.717Z,11.10
2022-09-28T04:33:42.705Z,9.60
2022-09-28T04:34:44.343Z,10.80
2022-09-28T04:35:42.692Z,10.60
2022-09-28T04:36:42.683Z,12.30
2022-09-28T04:37:42.671Z,10.70
2022-09-28T04:38:52.756Z,11.50
2022-09-28T04:39:46.281Z,11.80
2022-09-28T04:40:42.707Z,9.20
2022-09-28T04:41:42.638Z,9.40
2022-09-28T04:42:42.631Z,8.90
2022-09-28T04:43:42.623Z,8.80
2022-09-28T04:44:42.613Z,9.60
2022-09-28T04:45:42.636Z,10.40
2022-09-28T04:46:42.598Z,11.70
2022-09-28T04:47:42.590Z,10.20
2022-09-28T04:48:42.583Z,8.80
2022-09-28T04:49:42.571Z,10.70
2022-09-28T04:50:42.563Z,10.60
2022-09-28T04:51:42.554Z,9.70
2022-09-28T04:52:42.548Z,8.90
2022-09-28T04:53:42.542Z,9.10
2022-09-28T04:54:42.530Z,10.30
2022-09-28T04:55:42.522Z,8.60
2022-09-28T04:56:42.515Z,9.30
2022-09-28T04:57:42.504Z,9.70
2022-09-28T04:58:42.496Z,9.50
2022-09-28T04:59:42.489Z,10.20
2022-09-28T05:00:42.521Z,10.40
2022-09-28T05:01:42.471Z,9.30
2022-09-28T05:02:42.530Z,9.40
2022-09-28T05:03:42.454Z,10.50
2022-09-28T05:04:42.449Z,10.70
2022-09-28T05:05:42.436Z,10.20
2022-09-28T05:06:42.429Z,11.40
2022-09-28T05:07:42.422Z,10.00
2022-09-28T05:08:42.413Z,10.20
2022-09-28T05:09:42.420Z,9.80
2022-09-28T05:10:42.395Z,11.10
2022-09-28T05:11:42.392Z,13.00
2022-09-28T05:12:42.380Z,11.90
2022-09-28T05:13:42.372Z,12.50
2022-09-28T05:14:42.359Z,13.90
2022-09-28T05:15:42.354Z,15.30
2022-09-28T05:16:42.483Z,12.20
2022-09-28T05:17:42.334Z,12.30
2022-09-28T05:18:42.326Z,12.60
2022-09-28T05:19:42.319Z,12.60
2022-09-28T05:20:42.320Z,12.90
2022-09-28T05:21:42.302Z,13.20
2022-09-28T05:22:42.296Z,14.60
2022-09-28T05:23:42.286Z,13.50
2022-09-28T05:24:42.276Z,16.00
2022-09-28T05:25:42.278Z,13.90
2022-09-28T05:26:42.262Z,14.70
2022-09-28T05:27:42.252Z,12.70
2022-09-28T05:28:42.244Z,11.90
2022-09-28T05:29:42.238Z,13.10
2022-09-28T05:30:42.237Z,13.90
2022-09-28T05:31:42.313Z,13.10
2022-09-28T05:32:42.211Z,12.90
2022-09-28T05:33:42.200Z,12.00
2022-09-28T05:34:42.196Z,12.60
2022-09-28T05:35:42.241Z,12.80
2022-09-28T05:36:42.177Z,11.30
2022-09-28T05:37:42.167Z,11.30
2022-09-28T05:38:42.161Z,11.50
2022-09-28T05:39:42.152Z,11.80
2022-09-28T05:40:42.197Z,11.70
2022-09-28T05:41:42.134Z,10.40
2022-09-28T05:42:42.129Z,10.20
2022-09-28T05:43:42.117Z,12.50
2022-09-28T05:44:42.110Z,10.60
2022-09-28T05:45:42.148Z,11.20
2022-09-28T05:46:42.096Z,10.90
2022-09-28T05:47:42.084Z,12.50
2022-09-28T05:48:42.076Z,11.40
2022-09-28T05:49:42.067Z,14.00
2022-09-28T05:50:42.059Z,12.40
2022-09-28T05:51:42.051Z,11.90
2022-09-28T05:52:42.043Z,12.90
2022-09-28T05:53:42.032Z,13.20
2022-09-28T05:54:42.026Z,15.20
2022-09-28T05:55:42.018Z,14.10
2022-09-28T05:56:42.009Z,13.40
2022-09-28T05:57:42.002Z,12.30
2022-09-28T05:58:41.994Z,11.30
2022-09-28T05:59:41.984Z,12.60
2022-09-28T06:00:41.976Z,12.70
2022-09-28T06:01:42.019Z,11.20
2022-09-28T06:02:42.035Z,12.90
2022-09-28T06:03:41.951Z,11.20
2022-09-28T06:04:41.945Z,11.00
2022-09-28T06:05:41.942Z,10.60
2022-09-28T06:06:41.928Z,12.20
2022-09-28T06:07:41.918Z,10.50
2022-09-28T06:08:41.908Z,12.80
2022-09-28T06:09:41.903Z,10.80
2022-09-28T06:10:41.895Z,10.10
2022-09-28T06:11:41.889Z,11.10
2022-09-28T06:12:41.876Z,11.60
2022-09-28T06:13:41.867Z,10.50
2022-09-28T06:14:41.859Z,13.40
2022-09-28T06:15:41.853Z,11.40
2022-09-28T06:16:44.013Z,9.30
2022-09-28T06:17:41.836Z,10.40
2022-09-28T06:18:41.826Z,12.10
2022-09-28T06:19:41.819Z,12.10
2022-09-28T06:20:41.813Z,11.10
2022-09-28T06:21:41.802Z,12.40
2022-09-28T06:22:41.796Z,10.70
2022-09-28T06:23:45.631Z,13.30
2022-09-28T06:24:41.778Z,12.10
2022-09-28T06:25:41.770Z,12.60
2022-09-28T06:26:41.763Z,9.90
2022-09-28T06:27:41.754Z,11.70
2022-09-28T06:28:41.748Z,11.40
2022-09-28T06:29:41.737Z,8.70
2022-09-28T06:30:41.810Z,10.60
2022-09-28T06:31:41.722Z,10.40
2022-09-28T06:32:41.715Z,12.70
2022-09-28T06:33:41.709Z,11.70
2022-09-28T06:34:41.700Z,9.10
2022-09-28T06:35:41.694Z,10.50
2022-09-28T06:36:41.684Z,11.90
2022-09-28T06:37:41.676Z,12.80
2022-09-28T06:38:41.668Z,8.20
2022-09-28T06:39:41.662Z,9.50
2022-09-28T06:40:41.749Z,11.40
2022-09-28T06:41:41.648Z,10.00
2022-09-28T06:42:41.640Z,8.70
2022-09-28T06:43:41.633Z,8.80
2022-09-28T06:44:41.626Z,8.10
2022-09-28T06:45:41.643Z,8.90
2022-09-28T06:46:41.611Z,8.50
2022-09-28T06:47:41.603Z,9.60
2022-09-28T06:48:41.602Z,8.90
2022-09-28T06:49:41.589Z,8.90
2022-09-28T06:50:41.580Z,9.90
2022-09-28T06:51:41.575Z,8.90
2022-09-28T06:52:41.571Z,9.00
2022-09-28T06:53:41.560Z,8.50
2022-09-28T06:54:41.554Z,12.30
2022-09-28T06:55:41.548Z,8.60
2022-09-28T06:56:41.539Z,9.60
2022-09-28T06:57:41.532Z,9.00
2022-09-28T06:58:41.524Z,8.70
2022-09-28T06:59:41.520Z,9.70
2022-09-28T07:00:41.513Z,11.10
2022-09-28T07:01:41.554Z,9.40
2022-09-28T07:02:41.567Z,8.70
2022-09-28T07:03:41.490Z,9.00
2022-09-28T07:04:41.484Z,10.40
2022-09-28T07:05:41.477Z,13.00
2022-09-28T07:06:41.469Z,9.30
2022-09-28T07:07:41.461Z,9.90
2022-09-28T07:08:41.456Z,10.30
2022-09-28T07:09:44.984Z,10.00
2022-09-28T07:10:41.439Z,8.90
2022-09-28T07:11:41.433Z,10.10
2022-09-28T07:12:41.427Z,10.00
2022-09-28T07:13:50.542Z,10.40
2022-09-28T07:14:47.863Z,10.00
2022-09-28T07:15:41.404Z,9.50
2022-09-28T07:17:09.863Z,9.10
2022-09-28T07:17:55.918Z,10.70
2022-09-28T07:18:41.383Z,11.10
2022-09-28T07:19:41.378Z,10.50
2022-09-28T07:20:52.345Z,10.90
2022-09-28T07:21:41.360Z,9.30
2022-09-28T07:22:43.618Z,10.60
2022-09-28T07:23:51.275Z,9.40
2022-09-28T07:24:41.341Z,9.60
2022-09-28T07:25:41.333Z,10.10
2022-09-28T07:26:41.326Z,10.10
2022-09-28T07:27:41.322Z,10.50
2022-09-28T07:28:41.312Z,9.50
2022-09-28T07:29:41.303Z,9.70
2022-09-28T07:30:41.323Z,9.80
2022-09-28T07:31:41.290Z,9.50
2022-09-28T07:32:41.283Z,10.20
2022-09-28T07:33:41.274Z,9.20
2022-09-28T07:34:41.267Z,11.60
2022-09-28T07:35:41.261Z,10.40
2022-09-28T07:36:41.255Z,12.40
2022-09-28T07:37:41.247Z,10.90
2022-09-28T07:38:41.240Z,11.10
2022-09-28T07:39:41.234Z,10.80
2022-09-28T07:40:44.132Z,11.10
2022-09-28T07:41:41.218Z,10.90
2022-09-28T07:42:41.209Z,10.90
2022-09-28T07:43:41.207Z,10.30
2022-09-28T07:44:41.205Z,12.90
2022-09-28T07:45:41.220Z,10.80
2022-09-28T07:46:41.183Z,11.80
2022-09-28T07:47:41.175Z,10.50
2022-09-28T07:48:41.169Z,10.00
2022-09-28T07:49:41.160Z,10.50
2022-09-28T07:50:41.152Z,10.80
2022-09-28T07:51:41.147Z,9.80
2022-09-28T07:52:41.140Z,10.30
2022-09-28T07:53:41.130Z,9.80
2022-09-28T07:54:41.124Z,11.60
2022-09-28T07:55:41.118Z,11.30
2022-09-28T07:56:41.109Z,9.30
2022-09-28T07:57:41.102Z,10.60
2022-09-28T07:58:41.102Z,10.00
2022-09-28T07:59:41.091Z,12.90
2022-09-28T08:00:41.081Z,9.80
2022-09-28T08:01:41.168Z,11.00
2022-09-28T08:02:41.146Z,9.90
2022-09-28T08:03:41.059Z,11.40
2022-09-28T08:04:41.052Z,9.40
2022-09-28T08:05:41.046Z,10.80
2022-09-28T08:06:41.038Z,9.30
2022-09-28T08:07:41.030Z,9.80
2022-09-28T08:08:41.024Z,8.90
2022-09-28T08:09:41.016Z,9.60
2022-09-28T08:10:44.550Z,11.80
2022-09-28T08:11:41.002Z,11.50
2022-09-28T08:12:40.994Z,11.20
2022-09-28T08:13:40.988Z,11.20
2022-09-28T08:14:40.981Z,11.10
2022-09-28T08:15:40.972Z,11.40
2022-09-28T08:16:40.969Z,11.20
2022-09-28T08:17:40.958Z,12.30
2022-09-28T08:18:40.953Z,12.30
2022-09-28T08:19:40.945Z,14.30
2022-09-28T08:20:40.940Z,13.00
2022-09-28T08:21:40.931Z,10.90
2022-09-28T08:22:40.924Z,11.10
2022-09-28T08:23:40.917Z,12.30
2022-09-28T08:24:40.911Z,12.80
2022-09-28T08:25:40.902Z,12.30
2022-09-28T08:26:40.899Z,12.30
2022-09-28T08:27:40.893Z,12.10
2022-09-28T08:28:40.882Z,12.10
2022-09-28T08:29:40.874Z,12.80
2022-09-28T08:30:40.959Z,11.70
2022-09-28T08:31:40.861Z,11.00
2022-09-28T08:32:40.856Z,14.40
2022-09-28T08:33:40.847Z,11.20
2022-09-28T08:34:40.840Z,10.50
2022-09-28T08:35:40.833Z,12.30
2022-09-28T08:36:40.822Z,11.50
2022-09-28T08:37:40.820Z,14.20
2022-09-28T08:38:40.812Z,12.30
2022-09-28T08:39:40.806Z,13.80
2022-09-28T08:40:40.826Z,12.60
2022-09-28T08:41:40.794Z,13.10
2022-09-28T08:42:40.789Z,13.20
2022-09-28T08:43:40.779Z,12.00
2022-09-28T08:44:40.859Z,10.90
2022-09-28T08:45:40.784Z,12.30
2022-09-28T08:46:40.759Z,9.00
2022-09-28T08:47:40.753Z,9.30
2022-09-28T08:48:40.748Z,12.70
2022-09-28T08:49:40.738Z,9.40
2022-09-28T08:50:40.733Z,10.60
2022-09-28T08:51:40.725Z,8.80
2022-09-28T08:52:40.743Z,9.00
2022-09-28T08:53:40.713Z,9.60
2022-09-28T08:54:40.760Z,10.20
2022-09-28T08:55:40.699Z,10.10
2022-09-28T08:56:40.693Z,9.50
2022-09-28T08:57:40.685Z,11.00
2022-09-28T08:58:40.681Z,11.00
2022-09-28T08:59:40.672Z,11.50
2022-09-28T09:00:40.666Z,9.30
2022-09-28T09:01:40.742Z,11.80
2022-09-28T09:02:40.709Z,11.90
2022-09-28T09:03:40.647Z,11.40
2022-09-28T09:04:40.641Z,12.00
2022-09-28T09:05:40.636Z,10.00
2022-09-28T09:06:40.628Z,12.70
2022-09-28T09:07:40.621Z,11.50
2022-09-28T09:08:40.615Z,12.50
2022-09-28T09:09:40.608Z,11.70
2022-09-28T09:10:40.599Z,11.70
2022-09-28T09:11:40.598Z,10.50
2022-09-28T09:12:40.616Z,11.20
2022-09-28T09:13:40.582Z,10.90
2022-09-28T09:14:40.577Z,9.90
2022-09-28T09:15:40.576Z,12.40
2022-09-28T09:16:40.630Z,10.20
2022-09-28T09:17:40.558Z,7.80
2022-09-28T09:18:40.550Z,8.70
2022-09-28T09:19:40.543Z,8.50
2022-09-28T09:20:40.538Z,7.30
2022-09-28T09:21:40.532Z,7.00
2022-09-28T09:22:40.527Z,9.20
2022-09-28T09:23:40.520Z,7.40
2022-09-28T09:24:40.513Z,8.80
2022-09-28T09:25:40.505Z,8.20
2022-09-28T09:26:40.502Z,10.00
2022-09-28T09:27:40.494Z,10.10
2022-09-28T09:28:40.488Z,7.90
2022-09-28T09:29:40.494Z,10.40
2022-09-28T09:30:40.531Z,9.00
2022-09-28T09:31:40.470Z,9.10
2022-09-28T09:32:40.462Z,12.30
2022-09-28T09:33:40.458Z,9.50
2022-09-28T09:34:40.453Z,7.50
2022-09-28T09:35:40.448Z,8.60
2022-09-28T09:36:41.270Z,8.50
2022-09-28T09:37:40.434Z,8.10
2022-09-28T09:38:40.429Z,7.40
2022-09-28T09:39:40.421Z,7.60
2022-09-28T09:40:40.480Z,7.70
2022-09-28T09:41:40.495Z,6.70
2022-09-28T09:42:40.403Z,7.80
2022-09-28T09:43:40.398Z,7.00
2022-09-28T09:44:40.394Z,6.20
2022-09-28T09:45:40.404Z,6.10
2022-09-28T09:46:40.381Z,7.30
2022-09-28T09:47:40.375Z,6.70
2022-09-28T09:48:40.371Z,6.90
2022-09-28T09:49:40.364Z,6.10
2022-09-28T09:50:40.357Z,5.50
2022-09-28T09:51:40.356Z,5.90
2022-09-28T09:52:43.703Z,6.50
2022-09-28T09:53:40.345Z,6.30
2022-09-28T09:54:40.335Z,5.30
2022-09-28T09:55:40.328Z,5.40
2022-09-28T09:56:40.339Z,6.40
2022-09-28T09:57:40.320Z,5.70
2022-09-28T09:58:40.315Z,5.10
2022-09-28T09:59:40.310Z,6.70
2022-09-28T10:00:40.306Z,8.00
2022-09-28T10:01:40.341Z,5.20
2022-09-28T10:02:40.325Z,5.80
2022-09-28T10:03:40.319Z,4.80
2022-09-28T10:04:40.286Z,5.10
2022-09-28T10:05:40.279Z,5.40
2022-09-28T10:06:40.273Z,5.30
2022-09-28T10:07:43.303Z,4.20
2022-09-28T10:08:40.277Z,3.50
2022-09-28T10:09:40.258Z,4.90
2022-09-28T10:10:40.257Z,4.40
2022-09-28T10:11:40.250Z,3.90
2022-09-28T10:12:40.246Z,3.80
2022-09-28T10:13:40.244Z,4.10
2022-09-28T10:14:40.233Z,4.40
2022-09-28T10:15:40.230Z,4.80
2022-09-28T10:16:40.267Z,4.00
2022-09-28T10:17:40.220Z,3.00
2022-09-28T10:18:40.216Z,3.90
2022-09-28T10:19:40.211Z,5.40
2022-09-28T10:20:40.210Z,3.90
2022-09-28T10:21:40.201Z,5.20
2022-09-28T10:22:40.195Z,5.20
2022-09-28T10:23:40.192Z,4.50
2022-09-28T10:24:40.187Z,4.70
2022-09-28T10:25:40.180Z,3.90
2022-09-28T10:26:40.177Z,4.30
2022-09-28T10:27:40.171Z,4.90
2022-09-28T10:28:40.167Z,4.60
2022-09-28T10:29:40.162Z,4.50
2022-09-28T10:30:40.179Z,4.80
2022-09-28T10:31:40.152Z,3.40
2022-09-28T10:32:40.166Z,3.80
2022-09-28T10:33:40.141Z,5.10
2022-09-28T10:34:40.136Z,4.50
2022-09-28T10:35:40.138Z,5.40
2022-09-28T10:36:40.127Z,5.80
2022-09-28T10:37:40.122Z,5.90
2022-09-28T10:38:40.115Z,4.00
2022-09-28T10:39:40.113Z,4.60
2022-09-28T10:40:40.202Z,4.30
2022-09-28T10:41:40.102Z,4.00
2022-09-28T10:42:40.098Z,5.00
2022-09-28T10:43:40.092Z,3.90
2022-09-28T10:44:40.088Z,3.60
2022-09-28T10:45:40.143Z,5.40
2022-09-28T10:46:40.076Z,4.20
2022-09-28T10:47:40.072Z,4.60
2022-09-28T10:48:40.125Z,3.90
2022-09-28T10:49:44.416Z,3.70
2022-09-28T10:50:40.055Z,5.30
2022-09-28T10:51:40.047Z,5.50
2022-09-28T10:52:40.047Z,3.50
2022-09-28T10:53:40.045Z,2.80
2022-09-28T10:54:40.038Z,2.60
2022-09-28T10:55:40.033Z,3.10
2022-09-28T10:56:40.031Z,4.30
2022-09-28T10:57:40.019Z,3.50
2022-09-28T10:58:40.015Z,2.70
2022-09-28T10:59:40.008Z,3.70
2022-09-28T11:00:40.004Z,4.00
2022-09-28T11:01:40.045Z,2.60
2022-09-28T11:02:40.048Z,3.50
2022-09-28T11:03:39.989Z,3.80
2022-09-28T11:04:39.985Z,2.80
2022-09-28T11:05:39.976Z,3.50
2022-09-28T11:06:39.973Z,3.60
2022-09-28T11:07:39.977Z,3.10
2022-09-28T11:08:39.964Z,3.70
2022-09-28T11:09:39.957Z,3.50
2022-09-28T11:10:39.950Z,2.70
2022-09-28T11:11:39.946Z,2.70
2022-09-28T11:12:39.941Z,2.90
2022-09-28T11:13:39.935Z,2.10
2022-09-28T11:14:42.743Z,2.70
2022-09-28T11:15:39.923Z,4.20
2022-09-28T11:16:39.977Z,2.90
2022-09-28T11:17:39.914Z,3.60
2022-09-28T11:18:39.908Z,4.40
2022-09-28T11:19:39.901Z,2.90
2022-09-28T11:20:42.786Z,2.60
2022-09-28T11:21:39.890Z,4.00
2022-09-28T11:22:39.895Z,3.50
2022-09-28T11:23:39.890Z,4.40
2022-09-28T11:24:39.875Z,3.60
2022-09-28T11:25:39.869Z,3.20
2022-09-28T11:26:39.865Z,3.70
2022-09-28T11:27:39.860Z,5.20
2022-09-28T11:28:39.855Z,3.20
2022-09-28T11:29:39.846Z,3.70
2022-09-28T11:30:39.871Z,3.10
2022-09-28T11:31:39.837Z,1.90
2022-09-28T11:32:39.835Z,3.20
2022-09-28T11:33:39.826Z,2.30
2022-09-28T11:34:57.905Z,2.80
2022-09-28T11:35:39.810Z,3.10
2022-09-28T11:36:39.812Z,2.00
2022-09-28T11:37:39.804Z,4.40
2022-09-28T11:38:39.800Z,3.00
2022-09-28T11:39:39.793Z,2.70
2022-09-28T11:40:39.803Z,2.30
2022-09-28T11:41:39.786Z,3.50
2022-09-28T11:42:39.772Z,3.00
2022-09-28T11:43:39.772Z,2.50
2022-09-28T11:44:39.765Z,2.20
2022-09-28T11:45:39.821Z,3.60
2022-09-28T11:46:39.751Z,2.10
2022-09-28T11:47:39.744Z,2.20
2022-09-28T11:48:39.753Z,3.40
2022-09-28T11:49:39.733Z,3.10
2022-09-28T11:50:39.729Z,2.90
2022-09-28T11:51:39.724Z,3.10
2022-09-28T11:52:39.715Z,2.50
2022-09-28T11:53:39.717Z,2.80
2022-09-28T11:54:39.704Z,1.90
2022-09-28T11:55:39.699Z,3.60
2022-09-28T11:56:39.692Z,2.80
2022-09-28T11:57:39.685Z,1.90
2022-09-28T11:58:39.680Z,1.90
2022-09-28T11:59:39.683Z,2.20
2022-09-28T12:00:39.669Z,2.00
2022-09-28T12:01:39.662Z,1.90
2022-09-28T12:02:39.745Z,2.90
2022-09-28T12:03:39.739Z,2.40
2022-09-28T12:04:39.645Z,1.70
2022-09-28T12:05:39.638Z,1.70
2022-09-28T12:06:39.634Z,2.90
2022-09-28T12:07:39.627Z,2.50
2022-09-28T12:08:39.620Z,2.20
2022-09-28T12:09:39.613Z,2.20
2022-09-28T12:10:44.685Z,1.40
2022-09-28T12:11:39.604Z,2.60
2022-09-28T12:12:39.597Z,1.80
2022-09-28T12:13:39.590Z,1.40
2022-09-28T12:14:39.588Z,3.60
2022-09-28T12:16:06.895Z,2.50
2022-09-28T12:17:04.146Z,2.20
2022-09-28T12:17:39.596Z,2.00
2022-09-28T12:18:39.562Z,1.90
2022-09-28T12:19:39.562Z,2.10
2022-09-28T12:20:39.565Z,1.10
2022-09-28T12:21:39.642Z,1.40
2022-09-28T12:22:39.538Z,1.40
2022-09-28T12:23:39.533Z,1.30
2022-09-28T12:24:39.528Z,2.00
2022-09-28T12:25:39.520Z,1.60
2022-09-28T12:26:39.515Z,2.00
2022-09-28T12:27:39.511Z,1.70
2022-09-28T12:28:39.506Z,1.80
2022-09-28T12:29:39.499Z,1.80
2022-09-28T12:30:39.567Z,1.40
2022-09-28T12:31:39.488Z,2.00
2022-09-28T12:32:39.490Z,1.40
2022-09-28T12:33:39.477Z,1.50
2022-09-28T12:34:39.482Z,0.90
2022-09-28T12:35:39.466Z,1.10
2022-09-28T12:36:39.461Z,1.00
2022-09-28T12:37:39.456Z,2.20
2022-09-28T12:38:39.454Z,2.50
2022-09-28T12:39:56.492Z,1.80
2022-09-28T12:40:39.533Z,1.80
2022-09-28T12:41:39.435Z,2.10
2022-09-28T12:42:39.433Z,1.80
2022-09-28T12:43:39.423Z,1.00
2022-09-28T12:44:39.418Z,1.10
2022-09-28T12:46:06.743Z,0.50
2022-09-28T12:46:39.446Z,2.10
2022-09-28T12:47:39.402Z,1.10
2022-09-28T12:48:39.398Z,1.30
2022-09-28T12:50:42.095Z,1.50
2022-09-28T12:51:39.379Z,1.20
2022-09-28T12:52:39.373Z,2.20
2022-09-28T12:53:39.368Z,0.50
2022-09-28T12:54:39.363Z,2.30
2022-09-28T12:55:39.358Z,0.70
2022-09-28T12:56:39.352Z,1.10
2022-09-28T12:57:39.345Z,1.50
2022-09-28T12:58:39.341Z,0.80
2022-09-28T12:59:39.337Z,1.00
2022-09-28T13:00:39.331Z,1.20
2022-09-28T13:01:39.393Z,1.30
2022-09-28T13:02:39.339Z,1.10
2022-09-28T13:03:39.315Z,0.40
2022-09-28T13:04:39.312Z,0.80
2022-09-28T13:05:39.303Z,1.80
2022-09-28T13:06:39.299Z,0.90
2022-09-28T13:07:39.343Z,0.70
2022-09-28T13:08:39.288Z,0.60
2022-09-28T13:09:39.285Z,1.40
2022-09-28T13:10:39.279Z,1.00